sensor_id;sensor_type;location;lat;lon;timestamp;P1;durP1;ratioP1;P2;durP2;ratioP2
39452;SDS011;25154;-33.684;151.102;2022-09-13T00:01:53;4.88;;;1.25;;
39452;SDS011;25154;-33.684;151.102;2022-09-13T00:06:56;5.18;;;1.30;;
39452;SDS011;25154;-33.684;151.102;2022-09-13T00:11:59;6.22;;;1.00;;
39452;SDS011;25154;-33.684;151.102;2022-09-13T00:17:01;6.15;;;1.20;;
39452;SDS011;25154;-33.684;151.102;2022-09-13T00:22:04;4.28;;;1.20;;
39452;SDS011;25154;-33.684;151.102;2022-09-13T00:27:08;5.13;;;1.10;;
39452;SDS011;25154;-33.684;151.102;2022-09-13T00:32:12;8.02;;;1.00;;
39452;SDS011;25154;-33.684;151.102;2022-09-13T00:37:15;5.68;;;1.23;;
39452;SDS011;25154;-33.684;151.102;2022-09-13T00:42:23;2.38;;;0.95;;
39452;SDS011;25154;-33.684;151.102;2022-09-13T00:53:10;3.83;;;1.00;;
39452;SDS011;25154;-33.684;151.102;2022-09-13T00:58:39;4.00;;;1.00;;
39452;SDS011;25154;-33.684;151.102;2022-09-13T01:03:46;3.42;;;0.88;;
39452;SDS011;25154;-33.684;151.102;2022-09-13T01:08:50;3.63;;;1.27;;
39452;SDS011;25154;-33.684;151.102;2022-09-13T01:13:54;4.30;;;1.05;;
39452;SDS011;25154;-33.684;151.102;2022-09-13T01:18:57;4.63;;;1.10;;
39452;SDS011;25154;-33.684;151.102;2022-09-13T01:30:16;4.82;;;1.00;;
39452;SDS011;25154;-33.684;151.102;2022-09-13T01:35:26;8.10;;;1.23;;
39452;SDS011;25154;-33.684;151.102;2022-09-13T02:03:04;8.25;;;1.30;;
39452;SDS011;25154;-33.684;151.102;2022-09-13T02:08:03;4.05;;;1.20;;
39452;SDS011;25154;-33.684;151.102;2022-09-13T02:13:14;4.95;;;1.38;;
39452;SDS011;25154;-33.684;151.102;2022-09-13T02:18:24;8.60;;;1.80;;
39452;SDS011;25154;-33.684;151.102;2022-09-13T02:23:33;7.47;;;1.42;;
39452;SDS011;25154;-33.684;151.102;2022-09-13T02:29:06;3.70;;;1.30;;
39452;SDS011;25154;-33.684;151.102;2022-09-13T02:34:17;8.10;;;1.27;;
39452;SDS011;25154;-33.684;151.102;2022-09-13T02:39:24;4.00;;;1.40;;
39452;SDS011;25154;-33.684;151.102;2022-09-13T02:49:47;7.47;;;1.40;;
39452;SDS011;25154;-33.684;151.102;2022-09-13T03:00:16;6.70;;;1.50;;
39452;SDS011;25154;-33.684;151.102;2022-09-13T03:05:19;5.38;;;1.30;;
39452;SDS011;25154;-33.684;151.102;2022-09-13T03:10:22;5.32;;;1.15;;
39452;SDS011;25154;-33.684;151.102;2022-09-13T03:15:37;3.45;;;1.10;;
39452;SDS011;25154;-33.684;151.102;2022-09-13T03:31:15;5.03;;;1.25;;
39452;SDS011;25154;-33.684;151.102;2022-09-13T03:36:35;7.82;;;1.20;;
39452;SDS011;25154;-33.684;151.102;2022-09-13T03:41:57;2.80;;;1.00;;
39452;SDS011;25154;-33.684;151.102;2022-09-13T03:47:06;2.38;;;1.00;;
39452;SDS011;25154;-33.684;151.102;2022-09-13T03:52:10;3.97;;;1.20;;
39452;SDS011;25154;-33.684;151.102;2022-09-13T03:57:19;6.88;;;1.52;;
39452;SDS011;25154;-33.684;151.102;2022-09-13T04:02:24;6.75;;;1.17;;
39452;SDS011;25154;-33.684;151.102;2022-09-13T04:07:28;5.20;;;1.60;;
39452;SDS011;25154;-33.684;151.102;2022-09-13T04:12:31;7.03;;;1.40;;
39452;SDS011;25154;-33.684;151.102;2022-09-13T04:17:35;5.32;;;1.25;;
39452;SDS011;25154;-33.684;151.102;2022-09-13T04:22:38;6.43;;;1.23;;
39452;SDS011;25154;-33.684;151.102;2022-09-13T04:27:40;3.03;;;1.25;;
39452;SDS011;25154;-33.684;151.102;2022-09-13T04:32:43;4.78;;;1.27;;
39452;SDS011;25154;-33.684;151.102;2022-09-13T04:37:46;5.60;;;1.13;;
39452;SDS011;25154;-33.684;151.102;2022-09-13T04:42:48;4.50;;;1.30;;
39452;SDS011;25154;-33.684;151.102;2022-09-13T04:47:52;5.47;;;1.17;;
39452;SDS011;25154;-33.684;151.102;2022-09-13T04:52:56;4.82;;;1.10;;
39452;SDS011;25154;-33.684;151.102;2022-09-13T04:57:59;5.63;;;1.20;;
39452;SDS011;25154;-33.684;151.102;2022-09-13T05:03:05;4.83;;;1.50;;
39452;SDS011;25154;-33.684;151.102;2022-09-13T05:08:11;5.32;;;1.20;;
39452;SDS011;25154;-33.684;151.102;2022-09-13T05:13:14;4.72;;;1.20;;
39452;SDS011;25154;-33.684;151.102;2022-09-13T05:18:17;4.55;;;1.52;;
39452;SDS011;25154;-33.684;151.102;2022-09-13T05:23:20;4.18;;;1.13;;
39452;SDS011;25154;-33.684;151.102;2022-09-13T05:28:23;7.82;;;1.73;;
39452;SDS011;25154;-33.684;151.102;2022-09-13T05:33:30;6.93;;;1.73;;
39452;SDS011;25154;-33.684;151.102;2022-09-13T05:38:34;5.88;;;1.10;;
39452;SDS011;25154;-33.684;151.102;2022-09-13T05:43:37;10.43;;;1.17;;
39452;SDS011;25154;-33.684;151.102;2022-09-13T05:48:40;8.85;;;1.27;;
39452;SDS011;25154;-33.684;151.102;2022-09-13T05:53:44;6.07;;;1.23;;
39452;SDS011;25154;-33.684;151.102;2022-09-13T05:58:48;8.02;;;1.40;;
39452;SDS011;25154;-33.684;151.102;2022-09-13T06:03:53;7.57;;;1.27;;
39452;SDS011;25154;-33.684;151.102;2022-09-13T06:08:58;5.95;;;1.20;;
39452;SDS011;25154;-33.684;151.102;2022-09-13T06:14:01;6.32;;;1.40;;
39452;SDS011;25154;-33.684;151.102;2022-09-13T06:19:04;5.25;;;1.15;;
39452;SDS011;25154;-33.684;151.102;2022-09-13T06:24:07;6.90;;;1.10;;
39452;SDS011;25154;-33.684;151.102;2022-09-13T06:29:09;42.38;;;3.28;;
39452;SDS011;25154;-33.684;151.102;2022-09-13T06:34:12;4.00;;;1.20;;
39452;SDS011;25154;-33.684;151.102;2022-09-13T06:39:17;3.42;;;0.90;;
39452;SDS011;25154;-33.684;151.102;2022-09-13T06:44:19;4.47;;;1.20;;
39452;SDS011;25154;-33.684;151.102;2022-09-13T06:49:23;5.15;;;1.40;;
39452;SDS011;25154;-33.684;151.102;2022-09-13T06:54:26;4.47;;;1.13;;
39452;SDS011;25154;-33.684;151.102;2022-09-13T06:59:28;3.08;;;1.08;;
39452;SDS011;25154;-33.684;151.102;2022-09-13T07:04:31;4.68;;;1.05;;
39452;SDS011;25154;-33.684;151.102;2022-09-13T07:09:34;5.68;;;1.17;;
39452;SDS011;25154;-33.684;151.102;2022-09-13T07:14:37;7.45;;;1.40;;
39452;SDS011;25154;-33.684;151.102;2022-09-13T07:19:45;7.05;;;1.55;;
39452;SDS011;25154;-33.684;151.102;2022-09-13T07:24:49;5.55;;;1.13;;
39452;SDS011;25154;-33.684;151.102;2022-09-13T07:29:53;6.53;;;1.20;;
39452;SDS011;25154;-33.684;151.102;2022-09-13T07:34:59;4.65;;;0.90;;
39452;SDS011;25154;-33.684;151.102;2022-09-13T07:40:02;4.88;;;1.15;;
39452;SDS011;25154;-33.684;151.102;2022-09-13T07:45:04;7.15;;;2.75;;
39452;SDS011;25154;-33.684;151.102;2022-09-13T07:50:07;5.40;;;1.20;;
39452;SDS011;25154;-33.684;151.102;2022-09-13T07:55:10;7.35;;;1.27;;
39452;SDS011;25154;-33.684;151.102;2022-09-13T08:00:12;4.90;;;1.63;;
39452;SDS011;25154;-33.684;151.102;2022-09-13T08:05:16;4.80;;;1.23;;
39452;SDS011;25154;-33.684;151.102;2022-09-13T08:10:18;8.73;;;1.33;;
39452;SDS011;25154;-33.684;151.102;2022-09-13T08:15:20;8.73;;;1.38;;
39452;SDS011;25154;-33.684;151.102;2022-09-13T08:20:23;7.72;;;1.58;;
39452;SDS011;25154;-33.684;151.102;2022-09-13T08:25:27;5.53;;;1.20;;
39452;SDS011;25154;-33.684;151.102;2022-09-13T08:30:32;11.02;;;1.90;;
39452;SDS011;25154;-33.684;151.102;2022-09-13T08:35:36;8.57;;;1.50;;
39452;SDS011;25154;-33.684;151.102;2022-09-13T08:40:39;8.55;;;1.42;;
39452;SDS011;25154;-33.684;151.102;2022-09-13T08:46:03;5.85;;;1.52;;
39452;SDS011;25154;-33.684;151.102;2022-09-13T08:56:40;8.77;;;1.88;;
39452;SDS011;25154;-33.684;151.102;2022-09-13T09:02:12;7.70;;;1.55;;
39452;SDS011;25154;-33.684;151.102;2022-09-13T09:07:27;5.90;;;1.83;;
39452;SDS011;25154;-33.684;151.102;2022-09-13T09:12:44;11.63;;;1.70;;
39452;SDS011;25154;-33.684;151.102;2022-09-13T09:23:11;7.72;;;2.10;;
39452;SDS011;25154;-33.684;151.102;2022-09-13T09:28:21;6.78;;;1.80;;
39452;SDS011;25154;-33.684;151.102;2022-09-13T09:38:46;9.40;;;2.00;;
39452;SDS011;25154;-33.684;151.102;2022-09-13T09:54:58;8.43;;;1.77;;
39452;SDS011;25154;-33.684;151.102;2022-09-13T10:00:11;9.23;;;2.00;;
39452;SDS011;25154;-33.684;151.102;2022-09-13T10:05:17;5.65;;;1.80;;
39452;SDS011;25154;-33.684;151.102;2022-09-13T10:10:23;6.45;;;1.70;;
39452;SDS011;25154;-33.684;151.102;2022-09-13T10:15:32;6.30;;;2.13;;
39452;SDS011;25154;-33.684;151.102;2022-09-13T10:20:35;4.88;;;1.60;;
39452;SDS011;25154;-33.684;151.102;2022-09-13T10:25:38;7.80;;;2.00;;
39452;SDS011;25154;-33.684;151.102;2022-09-13T10:35:58;6.90;;;1.83;;
39452;SDS011;25154;-33.684;151.102;2022-09-13T10:41:07;5.45;;;1.38;;
39452;SDS011;25154;-33.684;151.102;2022-09-13T10:56:36;9.95;;;2.47;;
39452;SDS011;25154;-33.684;151.102;2022-09-13T11:07:19;12.60;;;3.15;;
39452;SDS011;25154;-33.684;151.102;2022-09-13T11:23:02;12.73;;;3.83;;
39452;SDS011;25154;-33.684;151.102;2022-09-13T11:28:47;13.40;;;2.97;;
39452;SDS011;25154;-33.684;151.102;2022-09-13T12:00:29;6.78;;;2.38;;
39452;SDS011;25154;-33.684;151.102;2022-09-13T12:05:50;12.05;;;3.47;;
39452;SDS011;25154;-33.684;151.102;2022-09-13T12:16:21;11.20;;;3.60;;
39452;SDS011;25154;-33.684;151.102;2022-09-13T12:21:37;9.35;;;2.20;;
39452;SDS011;25154;-33.684;151.102;2022-09-13T12:32:05;9.50;;;3.20;;
39452;SDS011;25154;-33.684;151.102;2022-09-13T12:48:22;9.07;;;3.55;;
39452;SDS011;25154;-33.684;151.102;2022-09-13T13:04:22;10.77;;;3.53;;
39452;SDS011;25154;-33.684;151.102;2022-09-13T13:09:35;8.15;;;3.70;;
39452;SDS011;25154;-33.684;151.102;2022-09-13T13:14:45;7.88;;;3.55;;
39452;SDS011;25154;-33.684;151.102;2022-09-13T13:19:48;8.73;;;2.10;;
39452;SDS011;25154;-33.684;151.102;2022-09-13T13:24:52;13.93;;;2.40;;
39452;SDS011;25154;-33.684;151.102;2022-09-13T13:35:41;6.25;;;1.90;;
39452;SDS011;25154;-33.684;151.102;2022-09-13T13:40:44;7.28;;;1.70;;
39452;SDS011;25154;-33.684;151.102;2022-09-13T13:45:57;6.85;;;1.65;;
39452;SDS011;25154;-33.684;151.102;2022-09-13T13:51:23;8.32;;;1.80;;
39452;SDS011;25154;-33.684;151.102;2022-09-13T13:56:43;8.90;;;1.73;;
39452;SDS011;25154;-33.684;151.102;2022-09-13T14:01:50;6.97;;;1.95;;
39452;SDS011;25154;-33.684;151.102;2022-09-13T14:12:52;7.43;;;1.80;;
39452;SDS011;25154;-33.684;151.102;2022-09-13T14:23:10;8.57;;;2.20;;
39452;SDS011;25154;-33.684;151.102;2022-09-13T14:28:18;6.28;;;2.40;;
39452;SDS011;25154;-33.684;151.102;2022-09-13T14:33:24;12.15;;;3.60;;
39452;SDS011;25154;-33.684;151.102;2022-09-13T14:38:33;14.07;;;4.15;;
39452;SDS011;25154;-33.684;151.102;2022-09-13T14:43:36;10.20;;;3.15;;
39452;SDS011;25154;-33.684;151.102;2022-09-13T14:53:53;6.63;;;2.40;;
39452;SDS011;25154;-33.684;151.102;2022-09-13T14:58:59;7.10;;;2.10;;
39452;SDS011;25154;-33.684;151.102;2022-09-13T15:04:06;5.70;;;1.65;;
39452;SDS011;25154;-33.684;151.102;2022-09-13T15:24:29;6.38;;;1.50;;
39452;SDS011;25154;-33.684;151.102;2022-09-13T15:29:34;5.20;;;1.48;;
39452;SDS011;25154;-33.684;151.102;2022-09-13T15:34:44;5.45;;;1.67;;
39452;SDS011;25154;-33.684;151.102;2022-09-13T15:39:49;6.18;;;1.77;;
39452;SDS011;25154;-33.684;151.102;2022-09-13T15:45:09;5.45;;;2.08;;
39452;SDS011;25154;-33.684;151.102;2022-09-13T15:50:18;7.28;;;3.10;;
39452;SDS011;25154;-33.684;151.102;2022-09-13T15:55:22;6.80;;;1.73;;
39452;SDS011;25154;-33.684;151.102;2022-09-13T16:00:26;9.15;;;1.60;;
39452;SDS011;25154;-33.684;151.102;2022-09-13T16:05:28;11.57;;;2.83;;
39452;SDS011;25154;-33.684;151.102;2022-09-13T16:10:30;8.30;;;2.95;;
39452;SDS011;25154;-33.684;151.102;2022-09-13T16:15:33;4.60;;;1.70;;
39452;SDS011;25154;-33.684;151.102;2022-09-13T16:20:35;5.75;;;2.00;;
39452;SDS011;25154;-33.684;151.102;2022-09-13T16:25:38;5.35;;;1.88;;
39452;SDS011;25154;-33.684;151.102;2022-09-13T16:30:40;5.63;;;1.90;;
39452;SDS011;25154;-33.684;151.102;2022-09-13T16:35:42;5.88;;;1.92;;
39452;SDS011;25154;-33.684;151.102;2022-09-13T16:40:44;11.57;;;2.50;;
39452;SDS011;25154;-33.684;151.102;2022-09-13T16:45:48;4.45;;;1.67;;
39452;SDS011;25154;-33.684;151.102;2022-09-13T16:50:51;7.05;;;2.10;;
39452;SDS011;25154;-33.684;151.102;2022-09-13T16:55:53;5.70;;;2.10;;
39452;SDS011;25154;-33.684;151.102;2022-09-13T17:01:10;6.80;;;2.23;;
39452;SDS011;25154;-33.684;151.102;2022-09-13T17:06:14;5.75;;;2.40;;
39452;SDS011;25154;-33.684;151.102;2022-09-13T17:11:19;6.65;;;2.25;;
39452;SDS011;25154;-33.684;151.102;2022-09-13T17:16:27;6.78;;;2.03;;
39452;SDS011;25154;-33.684;151.102;2022-09-13T17:21:31;8.90;;;2.13;;
39452;SDS011;25154;-33.684;151.102;2022-09-13T17:26:34;5.05;;;2.20;;
39452;SDS011;25154;-33.684;151.102;2022-09-13T17:31:36;7.43;;;1.98;;
39452;SDS011;25154;-33.684;151.102;2022-09-13T17:36:39;6.00;;;1.80;;
39452;SDS011;25154;-33.684;151.102;2022-09-13T17:41:42;6.05;;;2.00;;
39452;SDS011;25154;-33.684;151.102;2022-09-13T17:46:44;6.20;;;2.70;;
39452;SDS011;25154;-33.684;151.102;2022-09-13T17:51:46;8.80;;;2.60;;
39452;SDS011;25154;-33.684;151.102;2022-09-13T17:56:49;6.90;;;2.20;;
39452;SDS011;25154;-33.684;151.102;2022-09-13T18:01:53;5.63;;;1.98;;
39452;SDS011;25154;-33.684;151.102;2022-09-13T18:07:00;7.33;;;2.10;;
39452;SDS011;25154;-33.684;151.102;2022-09-13T18:12:02;7.38;;;2.10;;
39452;SDS011;25154;-33.684;151.102;2022-09-13T18:17:05;5.40;;;1.83;;
39452;SDS011;25154;-33.684;151.102;2022-09-13T18:22:12;4.57;;;1.77;;
39452;SDS011;25154;-33.684;151.102;2022-09-13T18:27:15;9.82;;;1.60;;
39452;SDS011;25154;-33.684;151.102;2022-09-13T18:32:17;3.28;;;1.42;;
39452;SDS011;25154;-33.684;151.102;2022-09-13T18:37:19;9.48;;;2.00;;
39452;SDS011;25154;-33.684;151.102;2022-09-13T18:42:22;6.82;;;1.38;;
39452;SDS011;25154;-33.684;151.102;2022-09-13T18:47:24;6.47;;;1.77;;
39452;SDS011;25154;-33.684;151.102;2022-09-13T18:52:26;5.15;;;1.65;;
39452;SDS011;25154;-33.684;151.102;2022-09-13T18:57:29;4.90;;;1.90;;
39452;SDS011;25154;-33.684;151.102;2022-09-13T19:02:32;8.40;;;1.65;;
39452;SDS011;25154;-33.684;151.102;2022-09-13T19:07:34;3.00;;;1.25;;
39452;SDS011;25154;-33.684;151.102;2022-09-13T19:12:36;5.32;;;1.90;;
39452;SDS011;25154;-33.684;151.102;2022-09-13T19:17:39;6.63;;;1.85;;
39452;SDS011;25154;-33.684;151.102;2022-09-13T19:22:43;5.90;;;1.45;;
39452;SDS011;25154;-33.684;151.102;2022-09-13T19:27:45;6.43;;;1.50;;
39452;SDS011;25154;-33.684;151.102;2022-09-13T19:32:48;7.53;;;2.65;;
39452;SDS011;25154;-33.684;151.102;2022-09-13T19:37:50;4.88;;;1.83;;
39452;SDS011;25154;-33.684;151.102;2022-09-13T19:42:53;5.95;;;2.00;;
39452;SDS011;25154;-33.684;151.102;2022-09-13T19:47:56;7.03;;;2.30;;
39452;SDS011;25154;-33.684;151.102;2022-09-13T19:52:59;8.52;;;2.25;;
39452;SDS011;25154;-33.684;151.102;2022-09-13T19:58:01;6.38;;;2.90;;
39452;SDS011;25154;-33.684;151.102;2022-09-13T20:03:03;8.02;;;2.50;;
39452;SDS011;25154;-33.684;151.102;2022-09-13T20:08:06;5.80;;;2.38;;
39452;SDS011;25154;-33.684;151.102;2022-09-13T20:13:08;8.02;;;2.30;;
39452;SDS011;25154;-33.684;151.102;2022-09-13T20:18:10;8.35;;;2.80;;
39452;SDS011;25154;-33.684;151.102;2022-09-13T20:23:15;7.40;;;2.25;;
39452;SDS011;25154;-33.684;151.102;2022-09-13T20:28:18;9.02;;;3.20;;
39452;SDS011;25154;-33.684;151.102;2022-09-13T20:33:20;3.90;;;1.98;;
39452;SDS011;25154;-33.684;151.102;2022-09-13T20:38:23;8.98;;;1.88;;
39452;SDS011;25154;-33.684;151.102;2022-09-13T20:43:25;7.22;;;1.63;;
39452;SDS011;25154;-33.684;151.102;2022-09-13T20:48:28;8.77;;;2.35;;
39452;SDS011;25154;-33.684;151.102;2022-09-13T20:53:31;4.90;;;1.70;;
39452;SDS011;25154;-33.684;151.102;2022-09-13T20:58:35;5.90;;;1.70;;
39452;SDS011;25154;-33.684;151.102;2022-09-13T21:03:43;4.40;;;1.77;;
39452;SDS011;25154;-33.684;151.102;2022-09-13T21:08:46;5.28;;;1.80;;
39452;SDS011;25154;-33.684;151.102;2022-09-13T21:13:51;4.88;;;1.83;;
39452;SDS011;25154;-33.684;151.102;2022-09-13T21:18:55;6.47;;;1.95;;
39452;SDS011;25154;-33.684;151.102;2022-09-13T21:24:00;10.52;;;2.00;;
39452;SDS011;25154;-33.684;151.102;2022-09-13T21:29:04;6.05;;;1.50;;
39452;SDS011;25154;-33.684;151.102;2022-09-13T21:34:11;5.97;;;1.40;;
39452;SDS011;25154;-33.684;151.102;2022-09-13T21:39:15;6.88;;;1.65;;
39452;SDS011;25154;-33.684;151.102;2022-09-13T21:44:20;7.40;;;1.50;;
39452;SDS011;25154;-33.684;151.102;2022-09-13T21:49:23;7.13;;;1.20;;
39452;SDS011;25154;-33.684;151.102;2022-09-13T21:54:27;4.22;;;1.20;;
39452;SDS011;25154;-33.684;151.102;2022-09-13T21:59:31;7.45;;;1.40;;
39452;SDS011;25154;-33.684;151.102;2022-09-13T22:04:37;5.30;;;1.48;;
39452;SDS011;25154;-33.684;151.102;2022-09-13T22:09:40;3.67;;;1.17;;
39452;SDS011;25154;-33.684;151.102;2022-09-13T22:14:44;5.68;;;1.30;;
39452;SDS011;25154;-33.684;151.102;2022-09-13T22:19:48;7.03;;;1.27;;
39452;SDS011;25154;-33.684;151.102;2022-09-13T22:24:52;6.25;;;1.33;;
39452;SDS011;25154;-33.684;151.102;2022-09-13T22:29:56;5.97;;;1.80;;
39452;SDS011;25154;-33.684;151.102;2022-09-13T22:35:00;5.25;;;1.10;;
39452;SDS011;25154;-33.684;151.102;2022-09-13T22:40:05;4.10;;;1.25;;
39452;SDS011;25154;-33.684;151.102;2022-09-13T22:45:09;3.75;;;1.08;;
39452;SDS011;25154;-33.684;151.102;2022-09-13T22:50:13;3.42;;;1.00;;
39452;SDS011;25154;-33.684;151.102;2022-09-13T22:55:17;6.82;;;1.38;;
39452;SDS011;25154;-33.684;151.102;2022-09-13T23:00:22;6.40;;;1.33;;
39452;SDS011;25154;-33.684;151.102;2022-09-13T23:05:26;8.18;;;1.40;;
39452;SDS011;25154;-33.684;151.102;2022-09-13T23:10:29;10.23;;;1.05;;
39452;SDS011;25154;-33.684;151.102;2022-09-13T23:15:32;7.38;;;1.23;;
39452;SDS011;25154;-33.684;151.102;2022-09-13T23:20:36;2.72;;;0.93;;
39452;SDS011;25154;-33.684;151.102;2022-09-13T23:25:38;4.90;;;1.08;;
39452;SDS011;25154;-33.684;151.102;2022-09-13T23:30:41;2.90;;;0.90;;
39452;SDS011;25154;-33.684;151.102;2022-09-13T23:35:44;5.55;;;1.20;;
39452;SDS011;25154;-33.684;151.102;2022-09-13T23:40:48;4.05;;;1.08;;
39452;SDS011;25154;-33.684;151.102;2022-09-13T23:45:50;4.03;;;0.90;;
39452;SDS011;25154;-33.684;151.102;2022-09-13T23:51:00;4.50;;;0.88;;
39452;SDS011;25154;-33.684;151.102;2022-09-13T23:56:10;3.07;;;1.00;;
